createdAt,value
2023-01-04T00:01:00.224Z,20.90
2023-01-04T00:01:59.846Z,13.60
2023-01-04T00:02:59.932Z,15.20
2023-01-04T00:03:59.822Z,22.10
2023-01-04T00:05:00.751Z,19.30
2023-01-04T00:05:59.748Z,14.00
2023-01-04T00:06:59.764Z,15.60
2023-01-04T00:07:59.782Z,13.50
2023-01-04T00:08:59.744Z,16.40
2023-01-04T00:09:59.787Z,13.90
2023-01-04T00:10:59.751Z,12.30
2023-01-04T00:11:59.720Z,13.90
2023-01-04T00:12:59.757Z,20.20
2023-01-04T00:13:59.697Z,11.90
2023-01-04T00:14:59.720Z,10.20
2023-01-04T00:16:07.156Z,15.20
2023-01-04T00:17:01.695Z,9.40
2023-01-04T00:17:59.720Z,17.00
2023-01-04T00:18:59.706Z,20.20
2023-01-04T00:19:59.669Z,11.40
2023-01-04T00:20:59.779Z,14.20
2023-01-04T00:21:59.780Z,14.50
2023-01-04T00:22:59.646Z,9.70
2023-01-04T00:23:59.637Z,10.90
2023-01-04T00:24:59.671Z,11.70
2023-01-04T00:25:59.624Z,18.70
2023-01-04T00:26:59.611Z,11.30
2023-01-04T00:27:59.620Z,13.70
2023-01-04T00:28:59.690Z,12.30
2023-01-04T00:29:59.611Z,13.60
2023-01-04T00:30:59.614Z,10.40
2023-01-04T00:31:59.596Z,14.10
2023-01-04T00:32:59.581Z,15.90
2023-01-04T00:33:59.613Z,12.60
2023-01-04T00:34:59.617Z,11.60
2023-01-04T00:35:59.627Z,12.50
2023-01-04T00:36:59.571Z,10.20
2023-01-04T00:37:59.548Z,10.00
2023-01-04T00:38:59.543Z,15.20
2023-01-04T00:39:59.599Z,10.10
2023-01-04T00:40:59.571Z,12.60
2023-01-04T00:42:00.937Z,10.40
2023-01-04T00:43:00.615Z,13.70
2023-01-04T00:43:59.529Z,11.50
2023-01-04T00:44:59.592Z,18.40
2023-01-04T00:45:59.550Z,10.10
2023-01-04T00:46:59.531Z,17.40
2023-01-04T00:47:59.529Z,11.70
2023-01-04T00:49:00.754Z,12.40
2023-01-04T00:50:00.562Z,11.30
2023-01-04T00:50:59.569Z,11.10
2023-01-04T00:51:59.496Z,9.90
2023-01-04T00:52:59.481Z,13.30
2023-01-04T00:53:59.511Z,10.50
2023-01-04T00:54:59.512Z,8.60
2023-01-04T00:55:59.479Z,13.20
2023-01-04T00:56:59.497Z,11.00
2023-01-04T00:57:59.445Z,11.60
2023-01-04T00:58:59.414Z,9.30
2023-01-04T00:59:59.427Z,8.80
2023-01-04T01:00:59.444Z,10.20
2023-01-04T01:01:59.558Z,9.90
2023-01-04T01:02:59.686Z,8.20
2023-01-04T01:03:59.472Z,7.10
2023-01-04T01:04:59.393Z,9.40
2023-01-04T01:05:59.383Z,9.30
2023-01-04T01:06:59.424Z,7.10
2023-01-04T01:07:59.363Z,7.50
2023-01-04T01:08:59.349Z,6.90
2023-01-04T01:09:59.345Z,7.60
2023-01-04T01:10:59.382Z,8.00
2023-01-04T01:11:59.383Z,9.80
2023-01-04T01:12:59.340Z,6.60
2023-01-04T01:13:59.314Z,5.70
2023-01-04T01:15:00.753Z,5.80
2023-01-04T01:16:00.415Z,6.30
2023-01-04T01:16:59.483Z,8.70
2023-01-04T01:17:59.324Z,8.40
2023-01-04T01:18:59.292Z,5.80
2023-01-04T01:19:59.327Z,10.00
2023-01-04T01:20:59.302Z,6.60
2023-01-04T01:21:59.292Z,12.40
2023-01-04T01:22:59.349Z,9.20
2023-01-04T01:23:59.302Z,6.00
2023-01-04T01:24:59.286Z,6.70
2023-01-04T01:25:59.280Z,5.70
2023-01-04T01:26:59.366Z,5.90
2023-01-04T01:27:59.251Z,5.00
2023-01-04T01:28:59.285Z,10.80
2023-01-04T01:29:59.319Z,27.80
2023-01-04T01:31:02.467Z,6.00
2023-01-04T01:32:01.368Z,5.10
2023-01-04T01:32:59.268Z,8.20
2023-01-04T01:33:59.219Z,8.90
2023-01-04T01:34:59.202Z,5.00
2023-01-04T01:35:59.229Z,6.70
2023-01-04T01:36:59.207Z,6.80
2023-01-04T01:37:59.251Z,4.70
2023-01-04T01:38:59.234Z,5.80
2023-01-04T01:39:59.181Z,4.90
2023-01-04T01:40:59.184Z,7.90
2023-01-04T01:41:59.174Z,5.50
2023-01-04T01:42:59.168Z,5.50
2023-01-04T01:43:59.252Z,7.90
2023-01-04T01:44:59.225Z,4.90
2023-01-04T01:45:59.239Z,4.60
2023-01-04T01:46:59.214Z,4.50
2023-01-04T01:47:59.134Z,5.50
2023-01-04T01:48:59.132Z,5.80
2023-01-04T01:49:59.184Z,7.00
2023-01-04T01:50:59.127Z,8.80
2023-01-04T01:51:59.122Z,6.20
2023-01-04T01:52:59.124Z,5.10
2023-01-04T01:53:59.125Z,7.60
2023-01-04T01:54:59.139Z,11.40
2023-01-04T01:55:59.119Z,9.60
2023-01-04T01:56:59.095Z,6.90
2023-01-04T01:57:59.113Z,6.10
2023-01-04T01:58:59.086Z,5.20
2023-01-04T01:59:59.200Z,9.50
2023-01-04T02:00:59.185Z,5.30
2023-01-04T02:01:59.248Z,6.40
2023-01-04T02:02:59.283Z,6.10
2023-01-04T02:03:59.133Z,6.40
2023-01-04T02:04:59.040Z,5.40
2023-01-04T02:05:59.048Z,8.10
2023-01-04T02:06:59.096Z,8.40
2023-01-04T02:07:59.073Z,6.20
2023-01-04T02:08:59.048Z,8.30
2023-01-04T02:09:59.007Z,11.60
2023-01-04T02:10:59.015Z,5.40
2023-01-04T02:11:59.055Z,7.10
2023-01-04T02:12:59.003Z,10.40
2023-01-04T02:13:59.004Z,9.70
2023-01-04T02:14:58.983Z,6.20
2023-01-04T02:15:59.004Z,5.70
2023-01-04T02:16:59.003Z,12.60
2023-01-04T02:17:58.991Z,10.60
2023-01-04T02:18:58.983Z,9.50
2023-01-04T02:20:00.019Z,7.40
2023-01-04T02:20:58.935Z,10.70
2023-01-04T02:21:59.061Z,9.40
2023-01-04T02:22:58.968Z,9.20
2023-01-04T02:23:58.995Z,9.20
2023-01-04T02:24:58.937Z,8.80
2023-01-04T02:25:58.915Z,11.50
2023-01-04T02:26:58.911Z,6.50
2023-01-04T02:27:58.959Z,7.10
2023-01-04T02:28:58.912Z,5.90
2023-01-04T02:29:58.901Z,5.90
2023-01-04T02:30:58.989Z,8.10
2023-01-04T02:31:58.914Z,12.20
2023-01-04T02:32:58.902Z,6.50
2023-01-04T02:33:59.016Z,11.30
2023-01-04T02:34:59.235Z,5.80
2023-01-04T02:35:59.875Z,5.50
2023-01-04T02:36:58.854Z,8.50
2023-01-04T02:37:58.855Z,6.90
2023-01-04T02:38:58.850Z,7.90
2023-01-04T02:39:58.885Z,9.20
2023-01-04T02:40:58.845Z,5.50
2023-01-04T02:41:58.843Z,8.80
2023-01-04T02:42:58.824Z,8.80
2023-01-04T02:43:58.833Z,7.90
2023-01-04T02:44:58.857Z,6.00
2023-01-04T02:45:58.872Z,6.70
2023-01-04T02:46:58.792Z,6.30
2023-01-04T02:47:58.825Z,9.70
2023-01-04T02:48:58.839Z,5.70
2023-01-04T02:50:04.337Z,7.00
2023-01-04T02:51:00.854Z,7.80
2023-01-04T02:51:58.841Z,7.20
2023-01-04T02:52:58.790Z,6.30
2023-01-04T02:53:58.776Z,7.50
2023-01-04T02:54:58.802Z,6.20
2023-01-04T02:55:58.808Z,7.90
2023-01-04T02:57:04.942Z,8.60
2023-01-04T02:58:00.752Z,5.40
2023-01-04T02:58:58.748Z,6.20
2023-01-04T02:59:58.723Z,10.60
2023-01-04T03:00:58.762Z,5.30
2023-01-04T03:01:58.807Z,6.40
2023-01-04T03:02:58.904Z,6.00
2023-01-04T03:03:58.776Z,7.80
2023-01-04T03:04:58.802Z,5.20
2023-01-04T03:05:58.739Z,9.40
2023-01-04T03:06:58.703Z,7.90
2023-01-04T03:07:58.740Z,5.80
2023-01-04T03:08:58.689Z,10.80
2023-01-04T03:09:58.662Z,6.80
2023-01-04T03:10:58.656Z,6.00
2023-01-04T03:11:58.719Z,11.00
2023-01-04T03:12:58.664Z,5.10
2023-01-04T03:13:58.706Z,5.00
2023-01-04T03:14:58.651Z,6.40
2023-01-04T03:15:58.693Z,4.70
2023-01-04T03:16:58.650Z,9.00
2023-01-04T03:17:58.675Z,7.40
2023-01-04T03:18:58.654Z,6.70
2023-01-04T03:19:58.605Z,6.80
2023-01-04T03:20:58.615Z,7.00
2023-01-04T03:21:58.676Z,4.90
2023-01-04T03:22:58.611Z,7.50
2023-01-04T03:23:58.599Z,5.20
2023-01-04T03:24:58.631Z,5.10
2023-01-04T03:25:58.588Z,6.00
2023-01-04T03:26:58.570Z,5.20
2023-01-04T03:27:58.580Z,8.60
2023-01-04T03:28:58.561Z,5.10
2023-01-04T03:29:58.594Z,6.30
2023-01-04T03:30:58.737Z,5.20
2023-01-04T03:31:58.612Z,8.30
2023-01-04T03:32:58.537Z,5.90
2023-01-04T03:33:58.549Z,5.30
2023-01-04T03:34:58.529Z,5.20
2023-01-04T03:35:58.564Z,6.00
2023-01-04T03:36:58.538Z,5.70
2023-01-04T03:37:58.505Z,5.40
2023-01-04T03:38:58.512Z,9.10
2023-01-04T03:39:58.498Z,5.60
2023-01-04T03:40:58.561Z,6.00
2023-01-04T03:41:58.552Z,6.40
2023-01-04T03:42:58.495Z,5.40
2023-01-04T03:43:58.476Z,8.70
2023-01-04T03:45:01.794Z,9.90
2023-01-04T03:45:59.485Z,6.30
2023-01-04T03:46:58.529Z,5.20
2023-01-04T03:47:58.439Z,5.50
2023-01-04T03:48:58.445Z,7.20
2023-01-04T03:49:58.533Z,5.60
2023-01-04T03:50:58.427Z,5.20
2023-01-04T03:51:58.508Z,6.90
2023-01-04T03:52:58.445Z,12.50
2023-01-04T03:53:58.458Z,6.10
2023-01-04T03:54:58.462Z,7.50
2023-01-04T03:55:58.478Z,10.90
2023-01-04T03:56:58.448Z,6.10
2023-01-04T03:57:58.512Z,5.40
2023-01-04T03:58:58.398Z,6.30
2023-01-04T03:59:58.433Z,6.40
2023-01-04T04:00:58.422Z,5.60
2023-01-04T04:01:58.407Z,8.00
2023-01-04T04:02:58.435Z,8.30
2023-01-04T04:03:58.392Z,8.80
2023-01-04T04:04:58.369Z,8.70
2023-01-04T04:05:58.346Z,10.00
2023-01-04T04:06:59.360Z,6.70
2023-01-04T04:07:58.422Z,6.10
2023-01-04T04:08:58.340Z,8.70
2023-01-04T04:09:58.350Z,6.50
2023-01-04T04:10:58.316Z,6.90
2023-01-04T04:11:58.342Z,7.10
2023-01-04T04:12:58.386Z,6.10
2023-01-04T04:13:58.388Z,6.90
2023-01-04T04:14:58.354Z,6.80
2023-01-04T04:15:58.341Z,14.10
2023-01-04T04:16:58.371Z,9.30
2023-01-04T04:17:58.277Z,7.10
2023-01-04T04:19:01.863Z,6.80
2023-01-04T04:19:59.350Z,7.30
2023-01-04T04:20:58.303Z,7.10
2023-01-04T04:21:58.251Z,7.70
2023-01-04T04:22:59.274Z,9.00
2023-01-04T04:23:58.242Z,9.10
2023-01-04T04:24:58.293Z,7.10
2023-01-04T04:25:58.261Z,7.50
2023-01-04T04:26:58.278Z,7.70
2023-01-04T04:27:58.214Z,7.70
2023-01-04T04:28:58.230Z,7.80
2023-01-04T04:29:58.225Z,8.40
2023-01-04T04:30:58.273Z,17.50
2023-01-04T04:31:58.313Z,13.10
2023-01-04T04:32:58.201Z,8.90
2023-01-04T04:33:58.194Z,8.60
2023-01-04T04:34:58.183Z,8.00
2023-01-04T04:35:58.162Z,7.50
2023-01-04T04:36:58.201Z,7.50
2023-01-04T04:37:58.161Z,11.10
2023-01-04T04:38:58.161Z,11.50
2023-01-04T04:39:58.157Z,11.00
2023-01-04T04:40:58.186Z,8.40
2023-01-04T04:41:58.184Z,7.90
2023-01-04T04:42:58.195Z,8.10
2023-01-04T04:43:58.143Z,8.20
2023-01-04T04:44:58.112Z,13.20
2023-01-04T04:45:58.151Z,8.00
2023-01-04T04:46:58.146Z,8.20
2023-01-04T04:47:58.113Z,8.20
2023-01-04T04:48:58.081Z,10.50
2023-01-04T04:49:58.090Z,7.90
2023-01-04T04:50:58.083Z,8.90
2023-01-04T04:51:58.108Z,9.30
2023-01-04T04:52:58.065Z,7.90
2023-01-04T04:53:58.124Z,8.90
2023-01-04T04:54:58.056Z,8.60
2023-01-04T04:55:58.079Z,8.00
2023-01-04T04:56:58.101Z,7.80
2023-01-04T04:57:58.130Z,7.30
2023-01-04T04:58:58.052Z,7.90
2023-01-04T04:59:58.035Z,7.40
2023-01-04T05:00:58.109Z,7.40
2023-01-04T05:01:58.264Z,7.30
2023-01-04T05:02:58.172Z,8.20
2023-01-04T05:03:58.006Z,7.50
2023-01-04T05:04:58.063Z,7.60
2023-01-04T05:05:58.001Z,8.70
2023-01-04T05:06:58.025Z,8.70
2023-01-04T05:07:58.037Z,7.10
2023-01-04T05:08:57.979Z,8.30
2023-01-04T05:09:58.014Z,8.40
2023-01-04T05:10:57.988Z,10.70
2023-01-04T05:11:57.968Z,7.70
2023-01-04T05:12:58.236Z,8.00
2023-01-04T05:13:58.948Z,8.10
2023-01-04T05:14:58.035Z,8.90
2023-01-04T05:15:57.968Z,8.00
2023-01-04T05:16:58.052Z,7.40
2023-01-04T05:17:58.004Z,7.70
2023-01-04T05:18:57.933Z,11.10
2023-01-04T05:19:57.928Z,7.60
2023-01-04T05:20:57.925Z,7.90
2023-01-04T05:21:57.996Z,8.00
2023-01-04T05:22:57.921Z,8.20
2023-01-04T05:23:57.907Z,8.30
2023-01-04T05:24:57.951Z,8.00
2023-01-04T05:25:57.907Z,8.60
2023-01-04T05:26:57.885Z,8.50
2023-01-04T05:27:57.887Z,8.20
2023-01-04T05:28:57.879Z,9.10
2023-01-04T05:29:57.908Z,9.70
2023-01-04T05:30:57.884Z,8.50
2023-01-04T05:31:57.950Z,9.10
2023-01-04T05:32:57.858Z,7.90
2023-01-04T05:33:57.962Z,8.70
2023-01-04T05:34:57.854Z,8.30
2023-01-04T05:35:57.889Z,9.10
2023-01-04T05:36:57.835Z,9.00
2023-01-04T05:37:57.891Z,8.20
2023-01-04T05:38:57.834Z,10.30
2023-01-04T05:39:57.834Z,8.50
2023-01-04T05:40:57.978Z,8.80
2023-01-04T05:41:57.796Z,9.50
2023-01-04T05:42:57.803Z,9.00
2023-01-04T05:43:57.805Z,9.00
2023-01-04T05:44:57.818Z,11.60
2023-01-04T05:45:57.873Z,9.70
2023-01-04T05:46:57.864Z,8.90
2023-01-04T05:47:57.765Z,9.70
2023-01-04T05:48:57.786Z,9.80
2023-01-04T05:49:57.762Z,9.70
2023-01-04T05:50:57.883Z,8.60
2023-01-04T05:51:57.804Z,9.30
2023-01-04T05:52:57.771Z,9.80
2023-01-04T05:53:57.748Z,9.70
2023-01-04T05:54:57.758Z,9.80
2023-01-04T05:55:57.795Z,9.20
2023-01-04T05:56:57.736Z,9.70
2023-01-04T05:57:57.734Z,9.50
2023-01-04T05:58:57.706Z,9.60
2023-01-04T05:59:57.713Z,9.90
2023-01-04T06:00:57.825Z,11.00
2023-01-04T06:01:57.778Z,10.00
2023-01-04T06:02:57.853Z,10.00
2023-01-04T06:03:57.712Z,9.30
2023-01-04T06:04:59.424Z,9.20
2023-01-04T06:05:59.348Z,9.80
2023-01-04T06:06:57.671Z,10.20
2023-01-04T06:07:57.765Z,11.30
2023-01-04T06:08:58.657Z,10.60
2023-01-04T06:09:57.653Z,9.00
2023-01-04T06:10:57.648Z,10.30
2023-01-04T06:11:57.650Z,10.20
2023-01-04T06:12:57.681Z,10.50
2023-01-04T06:13:57.657Z,10.00
2023-01-04T06:14:57.604Z,9.50
2023-01-04T06:15:57.617Z,9.90
2023-01-04T06:16:57.673Z,10.20
2023-01-04T06:17:57.609Z,10.50
2023-01-04T06:18:57.615Z,10.00
2023-01-04T06:19:57.584Z,10.70
2023-01-04T06:20:57.578Z,9.90
2023-01-04T06:21:57.586Z,10.40
2023-01-04T06:22:57.566Z,10.70
2023-01-04T06:23:57.624Z,10.30
2023-01-04T06:24:57.658Z,10.50
2023-01-04T06:25:57.558Z,10.70
2023-01-04T06:26:57.550Z,15.90
2023-01-04T06:27:57.534Z,10.10
2023-01-04T06:28:57.577Z,10.60
2023-01-04T06:29:57.518Z,10.40
2023-01-04T06:30:57.618Z,10.00
2023-01-04T06:31:57.514Z,9.60
2023-01-04T06:32:57.560Z,9.20
2023-01-04T06:33:57.510Z,10.40
2023-01-04T06:34:57.498Z,10.10
2023-01-04T06:35:57.493Z,9.60
2023-01-04T06:36:57.474Z,10.20
2023-01-04T06:37:57.520Z,10.20
2023-01-04T06:38:57.461Z,9.40
2023-01-04T06:39:57.490Z,9.90
2023-01-04T06:40:57.480Z,10.00
2023-01-04T06:42:05.383Z,10.10
2023-01-04T06:42:59.514Z,10.20
2023-01-04T06:43:58.478Z,10.50
2023-01-04T06:44:57.488Z,10.40
2023-01-04T06:45:57.488Z,10.60
2023-01-04T06:46:57.455Z,10.10
2023-01-04T06:47:57.490Z,10.40
2023-01-04T06:48:57.405Z,10.80
2023-01-04T06:49:57.405Z,11.20
2023-01-04T06:50:57.387Z,10.40
2023-01-04T06:51:57.383Z,11.30
2023-01-04T06:52:57.419Z,11.30
2023-01-04T06:53:57.425Z,11.80
2023-01-04T06:54:57.394Z,11.40
2023-01-04T06:55:57.374Z,12.60
2023-01-04T06:56:57.354Z,11.90
2023-01-04T06:57:59.636Z,11.10
2023-01-04T06:58:58.403Z,11.70
2023-01-04T06:59:57.359Z,12.30
2023-01-04T07:00:57.403Z,12.20
2023-01-04T07:01:57.507Z,12.10
2023-01-04T07:03:12.717Z,10.80
2023-01-04T07:03:58.456Z,12.20
2023-01-04T07:04:57.491Z,11.40
2023-01-04T07:05:57.319Z,11.30
2023-01-04T07:06:57.310Z,11.20
2023-01-04T07:08:01.164Z,11.70
2023-01-04T07:08:58.367Z,11.30
2023-01-04T07:09:57.333Z,11.30
2023-01-04T07:10:57.340Z,10.90
2023-01-04T07:11:57.299Z,10.30
2023-01-04T07:12:57.279Z,11.10
2023-01-04T07:13:57.285Z,10.00
2023-01-04T07:14:57.306Z,9.50
2023-01-04T07:15:57.305Z,10.30
2023-01-04T07:16:57.314Z,10.80
2023-01-04T07:17:57.262Z,11.50
2023-01-04T07:18:57.240Z,10.50
2023-01-04T07:19:57.325Z,11.10
2023-01-04T07:20:57.252Z,10.90
2023-01-04T07:21:57.275Z,12.60
2023-01-04T07:22:57.235Z,11.00
2023-01-04T07:23:57.209Z,10.20
2023-01-04T07:24:57.220Z,10.10
2023-01-04T07:25:57.206Z,10.80
2023-01-04T07:26:57.220Z,10.40
2023-01-04T07:27:57.242Z,10.00
2023-01-04T07:28:57.195Z,11.60
2023-01-04T07:29:57.185Z,11.30
2023-01-04T07:30:57.195Z,11.40
2023-01-04T07:31:57.263Z,11.20
2023-01-04T07:32:57.201Z,10.20
2023-01-04T07:33:57.147Z,10.30
2023-01-04T07:34:57.152Z,10.50
2023-01-04T07:35:57.165Z,10.50
2023-01-04T07:36:57.159Z,10.60
2023-01-04T07:37:58.949Z,10.80
2023-01-04T07:38:58.136Z,10.70
2023-01-04T07:39:57.157Z,11.20
2023-01-04T07:40:57.368Z,10.40
2023-01-04T07:41:58.148Z,11.40
2023-01-04T07:42:57.204Z,10.40
2023-01-04T07:43:57.088Z,10.00
2023-01-04T07:44:57.099Z,9.90
2023-01-04T07:45:57.129Z,12.00
2023-01-04T07:46:57.149Z,10.40
2023-01-04T07:47:57.076Z,10.60
2023-01-04T07:48:57.120Z,10.30
2023-01-04T07:49:57.091Z,10.10
2023-01-04T07:50:57.070Z,10.00
2023-01-04T07:51:57.088Z,10.30
2023-01-04T07:52:57.048Z,10.60
2023-01-04T07:53:57.143Z,10.10
2023-01-04T07:54:57.035Z,10.00
2023-01-04T07:55:57.017Z,10.70
2023-01-04T07:56:57.074Z,9.90
2023-01-04T07:57:57.034Z,10.60
2023-01-04T07:58:57.191Z,10.40
2023-01-04T07:59:57.003Z,11.00
2023-01-04T08:00:57.101Z,10.20
2023-01-04T08:01:57.163Z,11.40
2023-01-04T08:02:57.199Z,10.90
2023-01-04T08:03:56.996Z,9.80
2023-01-04T08:04:57.075Z,10.20
2023-01-04T08:05:57.010Z,9.20
2023-01-04T08:06:56.973Z,9.80
2023-01-04T08:07:56.939Z,11.00
2023-01-04T08:08:57.020Z,10.30
2023-01-04T08:09:57.098Z,10.20
2023-01-04T08:10:56.927Z,10.50
2023-01-04T08:11:56.939Z,11.60
2023-01-04T08:12:56.915Z,11.20
2023-01-04T08:13:56.924Z,10.20
2023-01-04T08:14:56.921Z,10.70
2023-01-04T08:15:57.011Z,11.30
2023-01-04T08:16:56.944Z,10.80
2023-01-04T08:17:56.918Z,10.40
2023-01-04T08:18:56.887Z,10.10
2023-01-04T08:19:57.888Z,11.20
2023-01-04T08:20:58.697Z,10.10
2023-01-04T08:21:57.920Z,10.50
2023-01-04T08:22:56.930Z,10.00
2023-01-04T08:23:56.891Z,9.70
2023-01-04T08:24:56.870Z,11.00
2023-01-04T08:25:56.865Z,10.20
2023-01-04T08:26:56.878Z,9.70
2023-01-04T08:27:56.849Z,10.00
2023-01-04T08:28:56.874Z,10.80
2023-01-04T08:29:56.846Z,10.60
2023-01-04T08:30:56.859Z,10.60
2023-01-04T08:31:56.813Z,10.10
2023-01-04T08:32:56.920Z,11.30
2023-01-04T08:33:56.850Z,10.90
2023-01-04T08:34:56.794Z,11.70
2023-01-04T08:35:56.827Z,11.50
2023-01-04T08:36:56.852Z,11.70
2023-01-04T08:38:13.116Z,10.90
2023-01-04T08:39:01.058Z,11.20
2023-01-04T08:39:57.814Z,11.30
2023-01-04T08:40:58.886Z,10.60
2023-01-04T08:42:02.236Z,10.40
2023-01-04T08:42:58.881Z,11.40
2023-01-04T08:43:56.767Z,11.10
2023-01-04T08:44:59.527Z,9.90
2023-01-04T08:45:57.843Z,10.80
2023-01-04T08:46:56.827Z,10.30
2023-01-04T08:47:56.741Z,10.20
2023-01-04T08:48:56.756Z,10.50
2023-01-04T08:49:56.811Z,10.30
2023-01-04T08:50:56.745Z,11.00
2023-01-04T08:51:56.751Z,10.40
2023-01-04T08:52:56.712Z,10.30
2023-01-04T08:53:56.857Z,10.90
2023-01-04T08:54:56.746Z,10.60
2023-01-04T08:55:56.752Z,10.50
2023-01-04T08:56:56.710Z,11.10
2023-01-04T08:57:56.715Z,10.70
2023-01-04T08:58:56.714Z,11.50
2023-01-04T08:59:56.650Z,9.90
2023-01-04T09:00:57.714Z,10.40
2023-01-04T09:02:04.490Z,10.70
2023-01-04T09:02:58.746Z,10.70
2023-01-04T09:03:56.661Z,10.90
2023-01-04T09:04:56.715Z,11.10
2023-01-04T09:05:56.727Z,11.10
2023-01-04T09:06:56.644Z,11.50
2023-01-04T09:07:56.672Z,11.60
2023-01-04T09:08:56.631Z,12.40
2023-01-04T09:09:56.754Z,11.80
2023-01-04T09:10:56.675Z,12.80
2023-01-04T09:11:56.620Z,12.50
2023-01-04T09:12:56.595Z,12.40
2023-01-04T09:14:02.435Z,13.40
2023-01-04T09:14:58.585Z,11.30
2023-01-04T09:15:56.674Z,11.70
2023-01-04T09:16:56.617Z,12.80
2023-01-04T09:18:31.432Z,12.60
2023-01-04T09:18:58.573Z,13.00
2023-01-04T09:19:56.573Z,14.00
2023-01-04T09:20:56.567Z,12.30
2023-01-04T09:21:56.666Z,13.30
2023-01-04T09:22:56.540Z,13.50
2023-01-04T09:23:56.619Z,12.50
2023-01-04T09:24:56.537Z,13.10
2023-01-04T09:25:56.550Z,13.10
2023-01-04T09:26:56.568Z,12.90
2023-01-04T09:27:56.537Z,13.80
2023-01-04T09:28:56.594Z,14.10
2023-01-04T09:29:56.793Z,14.20
2023-01-04T09:30:56.544Z,13.80
2023-01-04T09:31:56.604Z,14.30
2023-01-04T09:32:56.554Z,12.90
2023-01-04T09:34:14.534Z,12.80
2023-01-04T09:34:58.487Z,13.50
2023-01-04T09:35:56.480Z,15.20
2023-01-04T09:36:56.457Z,12.80
2023-01-04T09:37:56.496Z,14.00
2023-01-04T09:38:56.513Z,13.00
2023-01-04T09:39:56.462Z,12.90
2023-01-04T09:40:56.461Z,14.00
2023-01-04T09:41:56.449Z,13.10
2023-01-04T09:43:20.011Z,13.30
2023-01-04T09:43:57.460Z,13.10
2023-01-04T09:45:25.519Z,12.50
2023-01-04T09:45:58.460Z,13.10
2023-01-04T09:46:56.482Z,13.20
2023-01-04T09:47:56.436Z,13.60
2023-01-04T09:48:56.437Z,13.00
2023-01-04T09:49:56.411Z,12.10
2023-01-04T09:50:56.398Z,11.80
2023-01-04T09:51:56.381Z,13.20
2023-01-04T09:52:56.363Z,11.80
2023-01-04T09:53:56.369Z,12.70
2023-01-04T09:54:59.130Z,11.30
2023-01-04T09:55:57.431Z,12.40
2023-01-04T09:56:56.351Z,11.30
2023-01-04T09:57:56.331Z,11.80
2023-01-04T09:58:56.339Z,11.20
2023-01-04T09:59:56.332Z,11.20
2023-01-04T10:00:56.407Z,10.90
2023-01-04T10:01:56.503Z,11.80
2023-01-04T10:02:56.609Z,11.40
2023-01-04T10:03:56.334Z,10.20
2023-01-04T10:04:56.295Z,9.90
2023-01-04T10:05:56.338Z,10.60
2023-01-04T10:07:02.762Z,12.40
2023-01-04T10:07:58.287Z,9.80
2023-01-04T10:08:56.265Z,10.20
2023-01-04T10:09:56.269Z,10.80
2023-01-04T10:10:56.274Z,10.30
2023-01-04T10:11:56.308Z,11.00
2023-01-04T10:12:59.827Z,10.00
2023-01-04T10:13:57.253Z,10.00
2023-01-04T10:14:56.262Z,9.20
2023-01-04T10:15:56.265Z,10.80
2023-01-04T10:17:14.421Z,9.60
2023-01-04T10:19:17.299Z,9.40
2023-01-04T10:19:23.922Z,9.20
2023-01-04T10:21:58.344Z,9.60
2023-01-04T10:22:56.199Z,9.70
2023-01-04T10:23:56.208Z,10.00
2023-01-04T10:24:56.223Z,10.20
2023-01-04T10:25:56.191Z,9.70
2023-01-04T10:26:56.345Z,10.00
2023-01-04T10:27:56.322Z,10.00
2023-01-04T10:28:56.207Z,10.40
2023-01-04T10:29:56.354Z,9.90
2023-01-04T10:30:56.186Z,10.10
2023-01-04T10:31:56.185Z,10.20
2023-01-04T10:32:56.182Z,9.70
2023-01-04T10:33:56.262Z,9.90
2023-01-04T10:34:56.243Z,9.00
2023-01-04T10:35:56.285Z,9.20
2023-01-04T10:36:56.139Z,9.80
2023-01-04T10:37:56.153Z,9.00
2023-01-04T10:38:56.172Z,12.10
2023-01-04T10:39:56.152Z,9.40
2023-01-04T10:40:56.131Z,9.10
2023-01-04T10:41:56.129Z,9.80
2023-01-04T10:42:56.212Z,9.90
2023-01-04T10:44:13.894Z,8.60
2023-01-04T10:44:57.120Z,9.40
2023-01-04T10:45:56.079Z,10.20
2023-01-04T10:46:56.109Z,9.60
2023-01-04T10:47:57.078Z,8.90
2023-01-04T10:48:56.082Z,9.10
2023-01-04T10:49:56.130Z,9.20
2023-01-04T10:50:56.102Z,9.70
2023-01-04T10:51:56.060Z,9.60
2023-01-04T10:52:56.082Z,9.70
2023-01-04T10:53:56.062Z,9.20
2023-01-04T10:54:56.067Z,8.30
2023-01-04T10:56:23.768Z,8.90
2023-01-04T10:56:57.028Z,8.40
2023-01-04T10:57:56.031Z,8.70
2023-01-04T10:58:56.043Z,8.50
2023-01-04T10:59:56.015Z,6.90
2023-01-04T11:00:56.132Z,7.80
2023-01-04T11:01:56.196Z,8.70
2023-01-04T11:02:56.224Z,8.00
2023-01-04T11:03:55.995Z,7.60
2023-01-04T11:04:55.995Z,7.50
2023-01-04T11:05:56.007Z,7.60
2023-01-04T11:06:56.160Z,5.90
2023-01-04T11:07:56.239Z,5.90
2023-01-04T11:08:56.231Z,6.30
2023-01-04T11:09:55.975Z,5.60
2023-01-04T11:10:56.001Z,5.90
2023-01-04T11:11:55.987Z,6.60
2023-01-04T11:12:56.029Z,5.90
2023-01-04T11:13:56.025Z,5.10
2023-01-04T11:14:56.019Z,5.90
2023-01-04T11:15:56.037Z,5.10
2023-01-04T11:16:56.065Z,5.00
2023-01-04T11:17:56.107Z,5.70
2023-01-04T11:18:55.907Z,4.90
2023-01-04T11:19:55.896Z,4.90
2023-01-04T11:20:55.900Z,4.70
2023-01-04T11:21:55.940Z,5.00
2023-01-04T11:22:56.007Z,4.70
2023-01-04T11:23:59.715Z,4.50
2023-01-04T11:25:34.023Z,4.90
2023-01-04T11:25:57.872Z,4.50
2023-01-04T11:26:55.869Z,4.90
2023-01-04T11:27:55.907Z,4.50
2023-01-04T11:28:55.874Z,11.50
2023-01-04T11:29:55.861Z,4.20
2023-01-04T11:30:55.885Z,5.00
2023-01-04T11:31:55.973Z,4.00
2023-01-04T11:32:55.930Z,7.20
2023-01-04T11:33:55.830Z,4.20
2023-01-04T11:34:55.836Z,4.10
2023-01-04T11:35:55.824Z,4.20
2023-01-04T11:36:55.816Z,4.40
2023-01-04T11:37:55.821Z,4.70
2023-01-04T11:38:55.849Z,4.30
2023-01-04T11:39:55.787Z,4.50
2023-01-04T11:40:55.801Z,4.70
2023-01-04T11:42:02.350Z,4.30
2023-01-04T11:42:57.782Z,4.80
2023-01-04T11:43:55.844Z,4.70
2023-01-04T11:44:55.841Z,4.40
2023-01-04T11:45:55.941Z,3.90
2023-01-04T11:46:55.819Z,4.60
2023-01-04T11:47:55.755Z,6.80
2023-01-04T11:48:55.821Z,4.70
2023-01-04T11:49:55.759Z,4.40
2023-01-04T11:50:55.761Z,4.70
2023-01-04T11:51:55.732Z,4.60
2023-01-04T11:52:55.724Z,4.70
2023-01-04T11:53:55.742Z,4.50
2023-01-04T11:54:55.726Z,4.80
2023-01-04T11:55:55.729Z,4.50
2023-01-04T11:56:55.760Z,4.90
2023-01-04T11:57:55.701Z,4.20
2023-01-04T11:58:55.698Z,4.10
2023-01-04T11:59:55.713Z,4.50
2023-01-04T12:00:55.687Z,4.40
2023-01-04T12:01:55.900Z,4.90
2023-01-04T12:03:03.100Z,4.40
2023-01-04T12:03:57.678Z,4.20
2023-01-04T12:04:55.680Z,4.30
2023-01-04T12:05:55.724Z,4.20
2023-01-04T12:06:55.717Z,3.70
2023-01-04T12:07:55.797Z,4.10
2023-01-04T12:08:55.678Z,3.60
2023-01-04T12:09:55.650Z,3.60
2023-01-04T12:10:55.660Z,4.00
2023-01-04T12:11:55.652Z,3.80
2023-01-04T12:12:55.743Z,3.50
2023-01-04T12:13:55.628Z,3.90
2023-01-04T12:14:55.632Z,3.60
2023-01-04T12:15:55.623Z,3.70
2023-01-04T12:16:55.606Z,5.30
2023-01-04T12:17:55.688Z,3.80
2023-01-04T12:18:55.618Z,3.00
2023-01-04T12:19:55.663Z,3.40
2023-01-04T12:20:55.644Z,3.60
2023-01-04T12:21:55.648Z,3.50
2023-01-04T12:22:55.643Z,3.40
2023-01-04T12:23:55.619Z,3.60
2023-01-04T12:25:00.663Z,2.80
2023-01-04T12:25:57.583Z,3.50
2023-01-04T12:26:55.613Z,3.90
2023-01-04T12:27:55.576Z,3.40
2023-01-04T12:28:55.558Z,4.00
2023-01-04T12:29:55.576Z,4.10
2023-01-04T12:30:55.603Z,3.40
2023-01-04T12:31:55.563Z,3.20
2023-01-04T12:32:55.556Z,3.00
2023-01-04T12:33:55.581Z,3.10
2023-01-04T12:34:55.549Z,3.40
2023-01-04T12:35:55.585Z,3.30
2023-01-04T12:36:57.487Z,3.00
2023-01-04T12:37:56.521Z,3.60
2023-01-04T12:38:55.558Z,3.10
2023-01-04T12:39:55.508Z,3.50
2023-01-04T12:40:55.583Z,3.20
2023-01-04T12:41:55.514Z,3.20
2023-01-04T12:42:55.605Z,3.20
2023-01-04T12:43:55.486Z,3.20
2023-01-04T12:44:55.546Z,3.10
2023-01-04T12:45:55.581Z,5.60
2023-01-04T12:46:55.540Z,4.50
2023-01-04T12:47:55.467Z,2.80
2023-01-04T12:48:55.523Z,2.70
2023-01-04T12:49:55.487Z,2.70
2023-01-04T12:51:07.355Z,2.80
2023-01-04T12:52:20.768Z,3.30
2023-01-04T12:53:57.476Z,3.20
2023-01-04T12:54:55.438Z,3.70
2023-01-04T12:55:55.484Z,2.50
2023-01-04T12:56:55.457Z,2.70
2023-01-04T12:57:55.441Z,2.70
2023-01-04T12:59:57.427Z,2.70
2023-01-04T13:00:55.415Z,2.70
2023-01-04T13:01:55.574Z,2.60
2023-01-04T13:02:55.729Z,2.30
2023-01-04T13:04:00.788Z,2.80
2023-01-04T13:05:25.803Z,2.50
2023-01-04T13:05:58.202Z,2.50
2023-01-04T13:06:56.371Z,2.50
2023-01-04T13:07:55.388Z,2.70
2023-01-04T13:08:55.427Z,3.50
2023-01-04T13:09:55.367Z,2.80
2023-01-04T13:10:55.362Z,4.10
2023-01-04T13:11:55.525Z,4.50